createdAt,value
2019-03-23T00:00:28.858Z,12.1
2019-03-23T00:01:28.849Z,12.13
2019-03-23T00:02:28.812Z,12.15
2019-03-23T00:03:28.788Z,12.15
2019-03-23T00:04:30.214Z,12.24
2019-03-23T00:05:28.740Z,12.28
2019-03-23T00:06:35.667Z,12.24
2019-03-23T00:07:28.688Z,12.29
2019-03-23T00:08:28.677Z,12.28
2019-03-23T00:09:28.646Z,12.24
2019-03-23T00:10:28.629Z,12.29
2019-03-23T00:11:28.599Z,12.31
2019-03-23T00:12:28.781Z,12.32
2019-03-23T00:13:28.549Z,12.4
2019-03-23T00:14:28.529Z,12.4
2019-03-23T00:15:28.506Z,12.37
2019-03-23T00:16:28.479Z,12.36
2019-03-23T00:17:28.458Z,12.37
2019-03-23T00:18:28.436Z,12.32
2019-03-23T00:19:28.445Z,12.46
2019-03-23T00:20:28.424Z,12.49
2019-03-23T00:21:28.362Z,12.45
2019-03-23T00:22:28.339Z,12.39
2019-03-23T00:23:28.321Z,12.43
2019-03-23T00:24:28.293Z,12.46
2019-03-23T00:25:28.265Z,12.5
2019-03-23T00:26:28.241Z,12.47
2019-03-23T00:27:28.217Z,12.43
2019-03-23T00:28:27.965Z,12.46
2019-03-23T00:29:28.172Z,12.4
2019-03-23T00:30:28.158Z,12.32
2019-03-23T00:31:28.135Z,12.32
2019-03-23T00:32:28.099Z,12.39
2019-03-23T00:33:28.115Z,12.4
2019-03-23T00:34:28.048Z,12.24
2019-03-23T00:35:28.026Z,12.28
2019-03-23T00:36:28.051Z,12.22
2019-03-23T00:37:27.979Z,12.24
2019-03-23T00:38:29.163Z,12.25
2019-03-23T00:39:27.937Z,12.29
2019-03-23T00:40:27.914Z,12.28
2019-03-23T00:41:27.890Z,12.27
2019-03-23T00:42:27.869Z,12.31
2019-03-23T00:43:27.844Z,12.28
2019-03-23T00:44:27.915Z,12.22
2019-03-23T00:45:27.565Z,12.25
2019-03-23T00:46:27.767Z,12.21
2019-03-23T00:47:27.744Z,12.2
2019-03-23T00:48:27.716Z,12.17
2019-03-23T00:49:27.736Z,12.13
2019-03-23T00:50:27.672Z,12.17
2019-03-23T00:51:27.651Z,12.15
2019-03-23T00:52:27.628Z,12.13
2019-03-23T00:53:27.600Z,12.09
2019-03-23T00:54:27.579Z,12.06
2019-03-23T00:55:27.550Z,12.07
2019-03-23T00:56:27.532Z,12.06
2019-03-23T00:57:27.517Z,11.99
2019-03-23T00:58:27.483Z,12.02
2019-03-23T00:59:27.461Z,11.99
2019-03-23T01:00:27.437Z,11.95
2019-03-23T01:01:27.410Z,11.91
2019-03-23T01:02:27.388Z,11.88
2019-03-23T01:03:27.369Z,11.84
2019-03-23T01:04:27.340Z,11.9
2019-03-23T01:05:27.318Z,11.87
2019-03-23T01:06:27.291Z,11.77
2019-03-23T01:07:27.276Z,11.83
2019-03-23T01:08:27.252Z,11.87
2019-03-23T01:09:27.223Z,11.84
2019-03-23T01:10:27.195Z,11.84
2019-03-23T01:11:27.177Z,11.83
2019-03-23T01:12:27.157Z,11.81
2019-03-23T01:13:27.128Z,11.81
2019-03-23T01:14:27.101Z,11.81
2019-03-23T01:15:27.073Z,11.8
2019-03-23T01:16:27.052Z,11.86
2019-03-23T01:17:27.024Z,11.8
2019-03-23T01:18:27.003Z,11.84
2019-03-23T01:19:26.979Z,11.86
2019-03-23T01:20:26.961Z,11.78
2019-03-23T01:21:26.933Z,11.8
2019-03-23T01:22:26.903Z,11.72
2019-03-23T01:23:26.880Z,11.7
2019-03-23T01:24:26.869Z,11.72
2019-03-23T01:25:26.831Z,11.57
2019-03-23T01:26:26.811Z,11.68
2019-03-23T01:27:26.788Z,11.66
2019-03-23T01:28:26.767Z,11.63
2019-03-23T01:29:26.735Z,11.6
2019-03-23T01:30:26.827Z,11.54
2019-03-23T01:31:26.694Z,11.55
2019-03-23T01:32:26.668Z,11.6
2019-03-23T01:33:26.642Z,11.48
2019-03-23T01:34:26.654Z,11.62
2019-03-23T01:35:26.592Z,11.57
2019-03-23T01:36:26.570Z,11.45
2019-03-23T01:37:26.547Z,11.44
2019-03-23T01:38:26.528Z,11.48
2019-03-23T01:39:26.496Z,11.47
2019-03-23T01:40:26.476Z,11.41
2019-03-23T01:41:26.446Z,11.45
2019-03-23T01:42:26.430Z,11.5
2019-03-23T01:43:26.409Z,11.37
2019-03-23T01:44:26.376Z,11.43
2019-03-23T01:45:26.355Z,11.35
2019-03-23T01:46:26.327Z,11.37
2019-03-23T01:47:26.303Z,11.35
2019-03-23T01:48:26.060Z,11.4
2019-03-23T01:49:26.253Z,11.33
2019-03-23T01:50:26.232Z,11.29
2019-03-23T01:51:26.204Z,11.33
2019-03-23T01:52:26.178Z,11.3
2019-03-23T01:53:26.154Z,11.14
2019-03-23T01:54:26.179Z,11.12
2019-03-23T01:55:26.124Z,11.12
2019-03-23T01:56:26.086Z,11.08
2019-03-23T01:57:26.060Z,11.14
2019-03-23T01:58:26.035Z,11.04
2019-03-23T01:59:26.016Z,10.94
2019-03-23T02:00:26.005Z,10.94
2019-03-23T02:01:25.960Z,10.86
2019-03-23T02:02:25.945Z,10.75
2019-03-23T02:03:25.911Z,10.78
2019-03-23T02:04:25.885Z,10.69
2019-03-23T02:05:25.867Z,10.68
2019-03-23T02:06:25.839Z,10.63
2019-03-23T02:07:25.814Z,10.61
2019-03-23T02:08:25.900Z,10.54
2019-03-23T02:09:25.765Z,10.63
2019-03-23T02:10:25.742Z,10.51
2019-03-23T02:11:25.723Z,10.41
2019-03-23T02:12:25.697Z,10.31
2019-03-23T02:13:25.691Z,10.35
2019-03-23T02:14:25.644Z,10.25
2019-03-23T02:15:25.627Z,10.19
2019-03-23T02:16:25.637Z,10.15
2019-03-23T02:17:25.567Z,10.07
2019-03-23T02:18:25.541Z,10.13
2019-03-23T02:19:25.518Z,9.99
2019-03-23T02:20:25.490Z,10.09
2019-03-23T02:21:25.467Z,9.97
2019-03-23T02:22:25.204Z,9.86
2019-03-23T02:23:25.416Z,10.01
2019-03-23T02:24:25.389Z,9.91
2019-03-23T02:25:25.368Z,9.82
2019-03-23T02:26:25.356Z,9.76
2019-03-23T02:27:24.839Z,9.74
2019-03-23T02:28:25.292Z,9.66
2019-03-23T02:29:25.266Z,9.62
2019-03-23T02:30:25.271Z,9.65
2019-03-23T02:31:25.218Z,9.56
2019-03-23T02:32:25.235Z,9.58
2019-03-23T02:33:25.164Z,9.56
2019-03-23T02:34:25.171Z,9.44
2019-03-23T02:35:25.141Z,9.48
2019-03-23T02:36:25.097Z,9.48
2019-03-23T02:37:32.476Z,9.51
2019-03-23T02:38:25.043Z,9.29
2019-03-23T02:39:25.026Z,9.31
2019-03-23T02:40:24.992Z,9.32
2019-03-23T02:41:24.980Z,9.31
2019-03-23T02:42:24.944Z,9.31
2019-03-23T02:43:24.919Z,9.23
2019-03-23T02:44:24.890Z,9.16
2019-03-23T02:45:24.868Z,9.19
2019-03-23T02:46:24.850Z,9.21
2019-03-23T02:47:24.820Z,9.11
2019-03-23T02:48:24.790Z,9.1
2019-03-23T02:49:24.759Z,9.13
2019-03-23T02:50:24.736Z,9.1
2019-03-23T02:51:24.714Z,9.03
2019-03-23T02:52:24.693Z,9.04
2019-03-23T02:53:24.669Z,9.03
2019-03-23T02:54:24.633Z,9
2019-03-23T02:55:24.597Z,8.99
2019-03-23T02:56:24.616Z,8.95
2019-03-23T02:57:24.553Z,8.82
2019-03-23T02:58:24.525Z,8.84
2019-03-23T02:59:24.496Z,8.69
2019-03-23T03:00:27.451Z,8.67
2019-03-23T03:01:24.445Z,8.64
2019-03-23T03:02:24.429Z,8.64
2019-03-23T03:03:24.395Z,8.66
2019-03-23T03:04:24.379Z,8.49
2019-03-23T03:05:24.350Z,8.58
2019-03-23T03:06:24.325Z,8.41
2019-03-23T03:07:24.302Z,8.45
2019-03-23T03:08:24.259Z,8.31
2019-03-23T03:09:24.245Z,8.27
2019-03-23T03:10:24.214Z,8.28
2019-03-23T03:11:24.194Z,8.24
2019-03-23T03:12:24.156Z,8.24
2019-03-23T03:13:24.141Z,8.19
2019-03-23T03:14:24.111Z,8.09
2019-03-23T03:15:24.144Z,8.05
2019-03-23T03:16:24.059Z,8.01
2019-03-23T03:17:24.027Z,8.05
2019-03-23T03:18:24.018Z,7.98
2019-03-23T03:19:23.972Z,7.94
2019-03-23T03:20:23.943Z,7.83
2019-03-23T03:21:23.920Z,7.73
2019-03-23T03:22:23.889Z,7.79
2019-03-23T03:23:23.882Z,7.67
2019-03-23T03:24:23.844Z,7.54
2019-03-23T03:25:23.814Z,7.5
2019-03-23T03:26:23.788Z,7.53
2019-03-23T03:27:23.771Z,7.53
2019-03-23T03:28:23.736Z,7.35
2019-03-23T03:29:23.715Z,7.29
2019-03-23T03:30:23.696Z,7.29
2019-03-23T03:31:23.696Z,7.14
2019-03-23T03:32:23.677Z,7.17
2019-03-23T03:33:23.631Z,7.07
2019-03-23T03:34:23.622Z,7.1
2019-03-23T03:35:23.554Z,7.03
2019-03-23T03:36:23.528Z,7
2019-03-23T03:37:23.507Z,6.96
2019-03-23T03:38:23.477Z,7
2019-03-23T03:39:23.502Z,6.99
2019-03-23T03:40:23.176Z,6.93
2019-03-23T03:41:23.389Z,6.89
2019-03-23T03:42:23.369Z,6.89
2019-03-23T03:43:23.617Z,6.93
2019-03-23T03:44:23.078Z,6.97
2019-03-23T03:45:23.277Z,7.02
2019-03-23T03:46:23.246Z,6.95
2019-03-23T03:47:23.243Z,7.02
2019-03-23T03:48:23.192Z,6.93
2019-03-23T03:49:22.706Z,6.93
2019-03-23T03:50:23.213Z,7.02
2019-03-23T03:51:23.116Z,6.92
2019-03-23T03:52:22.850Z,6.97
2019-03-23T03:53:23.080Z,6.93
2019-03-23T03:54:23.076Z,6.96
2019-03-23T03:55:23.012Z,6.87
2019-03-23T03:56:22.976Z,6.87
2019-03-23T03:57:22.954Z,6.79
2019-03-23T03:58:22.944Z,6.77
2019-03-23T03:59:22.898Z,6.72
2019-03-23T04:00:22.881Z,6.67
2019-03-23T04:01:22.851Z,6.69
2019-03-23T04:02:22.578Z,6.72
2019-03-23T04:03:22.794Z,6.63
2019-03-23T04:04:22.760Z,6.63
2019-03-23T04:05:22.733Z,6.66
2019-03-23T04:06:22.707Z,6.67
2019-03-23T04:07:22.677Z,6.64
2019-03-23T04:08:22.658Z,6.72
2019-03-23T04:09:22.621Z,6.57
2019-03-23T04:10:22.601Z,6.59
2019-03-23T04:11:22.586Z,6.62
2019-03-23T04:12:22.317Z,6.66
2019-03-23T04:13:22.530Z,6.69
2019-03-23T04:14:22.491Z,6.67
2019-03-23T04:15:22.466Z,6.7
2019-03-23T04:16:22.429Z,6.74
2019-03-23T04:17:22.427Z,6.64
2019-03-23T04:18:22.387Z,6.64
2019-03-23T04:19:22.355Z,6.66
2019-03-23T04:20:22.348Z,6.64
2019-03-23T04:21:22.303Z,6.69
2019-03-23T04:22:22.269Z,6.72
2019-03-23T04:23:22.242Z,6.69
2019-03-23T04:24:22.215Z,6.74
2019-03-23T04:25:22.211Z,6.78
2019-03-23T04:26:22.168Z,6.69
2019-03-23T04:27:22.140Z,6.66
2019-03-23T04:28:22.108Z,6.67
2019-03-23T04:29:22.100Z,6.62
2019-03-23T04:30:22.052Z,6.69
2019-03-23T04:31:22.043Z,6.64
2019-03-23T04:32:21.995Z,6.66
2019-03-23T04:33:21.976Z,6.69
2019-03-23T04:34:21.962Z,6.69
2019-03-23T04:35:21.918Z,6.63
2019-03-23T04:36:21.890Z,6.74
2019-03-23T04:37:21.853Z,6.72
2019-03-23T04:38:27.363Z,6.77
2019-03-23T04:39:21.873Z,6.72
2019-03-23T04:40:21.780Z,6.88
2019-03-23T04:41:21.754Z,6.85
2019-03-23T04:42:21.720Z,6.93
2019-03-23T04:43:21.693Z,6.96
2019-03-23T04:44:21.663Z,6.95
2019-03-23T04:45:21.644Z,6.99
2019-03-23T04:46:21.612Z,6.89
2019-03-23T04:47:21.342Z,6.95
2019-03-23T04:48:21.554Z,6.89
2019-03-23T04:49:21.526Z,6.89
2019-03-23T04:50:21.503Z,6.97
2019-03-23T04:51:21.474Z,6.95
2019-03-23T04:52:21.209Z,6.88
2019-03-23T04:53:21.416Z,6.87
2019-03-23T04:54:21.398Z,6.92
2019-03-23T04:55:21.378Z,6.88
2019-03-23T04:56:21.337Z,6.85
2019-03-23T04:57:21.073Z,6.78
2019-03-23T04:58:21.281Z,6.79
2019-03-23T04:59:21.258Z,6.77
2019-03-23T05:00:21.236Z,6.81
2019-03-23T05:01:21.205Z,6.75
2019-03-23T05:02:21.180Z,6.7
2019-03-23T05:03:21.152Z,6.69
2019-03-23T05:04:21.135Z,6.7
2019-03-23T05:05:21.092Z,6.69
2019-03-23T05:06:21.069Z,6.7
2019-03-23T05:07:21.038Z,6.72
2019-03-23T05:08:21.020Z,6.67
2019-03-23T05:09:21.029Z,6.64
2019-03-23T05:10:20.956Z,6.72
2019-03-23T05:11:20.952Z,6.67
2019-03-23T05:12:20.900Z,6.62
2019-03-23T05:13:20.872Z,6.67
2019-03-23T05:14:20.618Z,6.64
2019-03-23T05:15:20.832Z,6.72
2019-03-23T05:16:20.789Z,6.63
2019-03-23T05:17:20.768Z,6.72
2019-03-23T05:18:20.736Z,6.67
2019-03-23T05:19:20.711Z,6.67
2019-03-23T05:20:20.688Z,6.78
2019-03-23T05:21:20.657Z,6.7
2019-03-23T05:22:20.630Z,6.74
2019-03-23T05:23:20.599Z,6.72
2019-03-23T05:24:20.577Z,6.72
2019-03-23T05:25:20.551Z,6.75
2019-03-23T05:26:20.290Z,6.72
2019-03-23T05:27:20.491Z,6.77
2019-03-23T05:28:20.465Z,6.75
2019-03-23T05:29:20.439Z,6.79
2019-03-23T05:30:20.466Z,6.81
2019-03-23T05:31:20.395Z,6.75
2019-03-23T05:32:20.356Z,6.78
2019-03-23T05:33:20.354Z,6.79
2019-03-23T05:34:20.344Z,6.88
2019-03-23T05:35:20.274Z,6.87
2019-03-23T05:36:20.246Z,6.92
2019-03-23T05:37:20.222Z,7.02
2019-03-23T05:38:20.193Z,7.07
2019-03-23T05:39:20.168Z,7.15
2019-03-23T05:40:20.138Z,7.1
2019-03-23T05:41:20.108Z,7.13
2019-03-23T05:42:20.082Z,7.11
2019-03-23T05:43:20.060Z,7.06
2019-03-23T05:44:20.028Z,7.02
2019-03-23T05:45:20.001Z,6.92
2019-03-23T05:46:19.980Z,6.95
2019-03-23T05:47:19.980Z,7.06
2019-03-23T05:48:19.923Z,7.07
2019-03-23T05:49:19.908Z,7.13
2019-03-23T05:50:19.869Z,7.18
2019-03-23T05:51:19.839Z,7.13
2019-03-23T05:52:19.809Z,7.13
2019-03-23T05:53:19.781Z,7.1
2019-03-23T05:54:19.758Z,7.1
2019-03-23T05:55:19.727Z,7.15
2019-03-23T05:56:19.705Z,7.1
2019-03-23T05:57:22.200Z,7.05
2019-03-23T05:58:19.660Z,7.05
2019-03-23T05:59:19.626Z,7.02
2019-03-23T06:00:19.609Z,6.95
2019-03-23T06:01:19.572Z,6.88
2019-03-23T06:02:19.553Z,6.93
2019-03-23T06:03:19.515Z,6.95
2019-03-23T06:04:19.487Z,6.97
2019-03-23T06:05:19.463Z,7.02
2019-03-23T06:06:19.431Z,7.1
2019-03-23T06:07:19.403Z,7.13
2019-03-23T06:08:19.377Z,7.13
2019-03-23T06:09:19.352Z,7.11
2019-03-23T06:10:19.341Z,7.07
2019-03-23T06:11:19.299Z,7.15
2019-03-23T06:12:20.183Z,7.13
2019-03-23T06:13:19.242Z,7.25
2019-03-23T06:14:19.221Z,7.17
2019-03-23T06:15:19.190Z,7.2
2019-03-23T06:16:20.373Z,7.13
2019-03-23T06:17:19.140Z,7.14
2019-03-23T06:18:19.109Z,7.14
2019-03-23T06:19:19.108Z,7.17
2019-03-23T06:20:18.826Z,7.13
2019-03-23T06:21:19.025Z,7.05
2019-03-23T06:22:18.758Z,7.06
2019-03-23T06:23:18.973Z,7.06
2019-03-23T06:24:18.948Z,7.02
2019-03-23T06:25:18.924Z,7.06
2019-03-23T06:26:18.895Z,7.06
2019-03-23T06:27:18.865Z,7.11
2019-03-23T06:28:18.839Z,7.1
2019-03-23T06:29:18.810Z,7.17
2019-03-23T06:30:18.786Z,7.07
2019-03-23T06:31:18.778Z,7.13
2019-03-23T06:32:20.634Z,7.13
2019-03-23T06:33:18.706Z,7.13
2019-03-23T06:34:18.679Z,7.07
2019-03-23T06:35:18.654Z,7.24
2019-03-23T06:36:18.635Z,7.15
2019-03-23T06:37:18.602Z,7.14
2019-03-23T06:38:20.944Z,7.18
2019-03-23T06:39:18.538Z,7.18
2019-03-23T06:40:18.516Z,7.21
2019-03-23T06:41:18.484Z,7.15
2019-03-23T06:42:18.459Z,7.21
2019-03-23T06:43:18.432Z,7.21
2019-03-23T06:44:20.746Z,7.24
2019-03-23T06:45:18.381Z,7.33
2019-03-23T06:46:18.354Z,7.35
2019-03-23T06:47:18.326Z,7.32
2019-03-23T06:48:18.305Z,7.35
2019-03-23T06:49:18.276Z,7.36
2019-03-23T06:50:18.244Z,7.39
2019-03-23T06:51:18.220Z,7.43
2019-03-23T06:52:18.193Z,7.39
2019-03-23T06:53:18.166Z,7.39
2019-03-23T06:54:18.136Z,7.4
2019-03-23T06:55:18.118Z,7.39
2019-03-23T06:56:18.085Z,7.42
2019-03-23T06:57:18.055Z,7.36
2019-03-23T06:58:18.034Z,7.45
2019-03-23T06:59:18.008Z,7.5
2019-03-23T07:00:17.982Z,7.48
2019-03-23T07:01:17.950Z,7.47
2019-03-23T07:02:18.979Z,7.43
2019-03-23T07:03:17.897Z,7.61
2019-03-23T07:04:17.869Z,7.66
2019-03-23T07:05:19.060Z,7.6
2019-03-23T07:06:17.817Z,7.58
2019-03-23T07:07:17.791Z,7.66
2019-03-23T07:08:17.764Z,7.7
2019-03-23T07:09:21.216Z,7.61
2019-03-23T07:10:17.721Z,7.69
2019-03-23T07:11:17.684Z,7.72
2019-03-23T07:12:17.669Z,7.77
2019-03-23T07:13:17.634Z,7.83
2019-03-23T07:14:17.612Z,7.82
2019-03-23T07:15:24.377Z,7.72
2019-03-23T07:16:17.552Z,7.87
2019-03-23T07:17:17.529Z,7.88
2019-03-23T07:18:17.502Z,7.82
2019-03-23T07:19:17.484Z,7.88
2019-03-23T07:20:17.452Z,7.83
2019-03-23T07:21:17.425Z,7.82
2019-03-23T07:22:17.393Z,7.85
2019-03-23T07:23:17.375Z,7.87
2019-03-23T07:24:17.351Z,7.94
2019-03-23T07:25:17.328Z,7.91
2019-03-23T07:26:17.294Z,8
2019-03-23T07:27:17.271Z,7.94
2019-03-23T07:28:17.246Z,7.9
2019-03-23T07:29:17.218Z,7.88
2019-03-23T07:30:17.182Z,7.94
2019-03-23T07:31:17.154Z,7.9
2019-03-23T07:32:17.134Z,7.82
2019-03-23T07:33:17.107Z,7.83
2019-03-23T07:34:17.089Z,7.83
2019-03-23T07:35:17.119Z,7.83
2019-03-23T07:36:17.024Z,7.88
2019-03-23T07:37:17.015Z,7.88
2019-03-23T07:38:16.972Z,7.83
2019-03-23T07:39:26.646Z,7.91
2019-03-23T07:40:16.941Z,7.94
2019-03-23T07:41:16.902Z,7.97
2019-03-23T07:42:16.870Z,7.95
2019-03-23T07:43:16.847Z,7.94
2019-03-23T07:44:16.821Z,7.97
2019-03-23T07:45:16.797Z,7.93
2019-03-23T07:46:16.762Z,7.94
2019-03-23T07:47:16.744Z,7.98
2019-03-23T07:48:17.915Z,7.93
2019-03-23T07:49:16.686Z,7.94
2019-03-23T07:50:16.660Z,7.98
2019-03-23T07:51:16.636Z,7.94
2019-03-23T07:52:16.611Z,8.01
2019-03-23T07:53:16.582Z,7.98
2019-03-23T07:54:16.595Z,8
2019-03-23T07:55:16.534Z,7.94
2019-03-23T07:56:16.502Z,8.01
2019-03-23T07:57:16.499Z,8
2019-03-23T07:58:16.451Z,8.08
2019-03-23T07:59:16.423Z,8.01
2019-03-23T08:00:16.400Z,8.1
2019-03-23T08:01:16.373Z,8.06
2019-03-23T08:02:16.349Z,8.06
2019-03-23T08:03:16.327Z,8.16
2019-03-23T08:04:16.298Z,8.23
2019-03-23T08:05:16.272Z,8.26
2019-03-23T08:06:16.249Z,8.2
2019-03-23T08:07:16.227Z,8.31
2019-03-23T08:08:15.955Z,8.3
2019-03-23T08:09:26.049Z,8.31
2019-03-23T08:10:16.142Z,8.3
2019-03-23T08:11:16.112Z,8.31
2019-03-23T08:12:16.091Z,8.41
2019-03-23T08:13:16.249Z,8.45
2019-03-23T08:14:16.040Z,8.42
2019-03-23T08:15:16.031Z,8.55
2019-03-23T08:16:15.990Z,8.58
2019-03-23T08:17:15.965Z,8.56
2019-03-23T08:18:15.936Z,8.51
2019-03-23T08:19:15.913Z,8.63
2019-03-23T08:20:15.884Z,8.67
2019-03-23T08:21:15.852Z,8.69
2019-03-23T08:22:16.054Z,8.63
2019-03-23T08:23:15.811Z,8.61
2019-03-23T08:24:15.783Z,8.61
2019-03-23T08:25:15.758Z,8.73
2019-03-23T08:26:15.727Z,8.69
2019-03-23T08:27:15.703Z,8.73
2019-03-23T08:28:15.679Z,8.7
2019-03-23T08:29:15.662Z,8.76
2019-03-23T08:30:15.634Z,8.81
2019-03-23T08:31:15.608Z,8.74
2019-03-23T08:32:15.580Z,8.74
2019-03-23T08:33:15.553Z,8.85
2019-03-23T08:34:15.532Z,8.87
2019-03-23T08:35:15.521Z,8.94
2019-03-23T08:36:15.480Z,8.94
2019-03-23T08:37:15.566Z,8.97
2019-03-23T08:38:15.628Z,9.02
2019-03-23T08:39:15.405Z,9
2019-03-23T08:40:15.382Z,9.04
2019-03-23T08:41:15.358Z,9.11
2019-03-23T08:42:15.339Z,9.03
2019-03-23T08:43:15.304Z,9.19
2019-03-23T08:44:15.281Z,9.21
2019-03-23T08:45:15.258Z,9.13
2019-03-23T08:46:15.237Z,9.1
2019-03-23T08:47:15.207Z,9.04
2019-03-23T08:48:15.187Z,9
2019-03-23T08:49:15.160Z,9.02
2019-03-23T08:50:15.785Z,9.03
2019-03-23T08:51:15.672Z,9.03
2019-03-23T08:52:15.093Z,9.02
2019-03-23T08:53:15.056Z,9.04
2019-03-23T08:54:15.036Z,8.97
2019-03-23T08:55:15.008Z,9.02
2019-03-23T08:56:14.982Z,9.1
2019-03-23T08:57:14.962Z,9.03
2019-03-23T08:58:14.938Z,9.11
2019-03-23T08:59:14.945Z,9.16
2019-03-23T09:00:14.892Z,9.21
2019-03-23T09:01:14.862Z,9.26
2019-03-23T09:02:14.843Z,9.34
2019-03-23T09:03:14.817Z,9.29
2019-03-23T09:04:14.788Z,9.34
2019-03-23T09:05:14.771Z,9.48
2019-03-23T09:06:14.744Z,9.44
2019-03-23T09:07:14.721Z,9.5
2019-03-23T09:08:14.694Z,9.55
2019-03-23T09:09:14.667Z,9.64
2019-03-23T09:10:14.648Z,9.55
2019-03-23T09:11:24.939Z,9.74
2019-03-23T09:12:14.599Z,9.83
2019-03-23T09:13:14.570Z,9.79
2019-03-23T09:14:14.546Z,9.77
2019-03-23T09:15:14.528Z,9.89
2019-03-23T09:16:14.492Z,9.89
2019-03-23T09:17:14.487Z,9.95
2019-03-23T09:18:14.451Z,9.95
2019-03-23T09:19:14.429Z,10.05
2019-03-23T09:20:14.401Z,10.09
2019-03-23T09:21:15.403Z,10.09
2019-03-23T09:22:14.354Z,9.98
2019-03-23T09:23:14.347Z,10.02
2019-03-23T09:24:14.310Z,10.09
2019-03-23T09:25:14.284Z,10.13
2019-03-23T09:26:16.094Z,10.15
2019-03-23T09:27:15.106Z,10.13
2019-03-23T09:28:14.217Z,10.22
2019-03-23T09:29:14.190Z,10.2
2019-03-23T09:30:14.167Z,10.16
2019-03-23T09:31:14.207Z,10.31
2019-03-23T09:32:14.122Z,10.31
2019-03-23T09:33:14.096Z,10.19
2019-03-23T09:34:14.073Z,10.17
2019-03-23T09:35:14.051Z,10.04
2019-03-23T09:36:14.027Z,10.09
2019-03-23T09:37:14.013Z,10.02
2019-03-23T09:38:13.982Z,9.94
2019-03-23T09:39:13.952Z,9.94
2019-03-23T09:40:16.050Z,9.92
2019-03-23T09:41:13.902Z,9.91
2019-03-23T09:42:13.887Z,10.01
2019-03-23T09:43:13.863Z,10.02
2019-03-23T09:44:13.834Z,10.01
2019-03-23T09:45:14.297Z,10.02
2019-03-23T09:46:13.807Z,10.02
2019-03-23T09:47:13.766Z,10.02
2019-03-23T09:48:13.738Z,10.02
2019-03-23T09:49:13.728Z,10.1
2019-03-23T09:50:13.691Z,10.09
2019-03-23T09:51:13.672Z,10.02
2019-03-23T09:52:13.645Z,10.04
2019-03-23T09:53:13.622Z,9.99
2019-03-23T09:54:13.601Z,10.05
2019-03-23T09:55:13.580Z,10.02
2019-03-23T09:56:13.580Z,9.97
2019-03-23T09:57:13.530Z,9.94
2019-03-23T09:58:13.511Z,9.91
2019-03-23T09:59:13.487Z,9.91
2019-03-23T10:00:13.463Z,9.91
2019-03-23T10:01:13.437Z,10.05
2019-03-23T10:02:13.415Z,10.04
2019-03-23T10:03:13.388Z,10.05
2019-03-23T10:04:13.541Z,10.07
2019-03-23T10:05:13.794Z,10.09
2019-03-23T10:06:13.321Z,10.02
2019-03-23T10:07:13.293Z,9.97
2019-03-23T10:08:14.474Z,9.99
2019-03-23T10:09:13.245Z,10.04
2019-03-23T10:10:23.576Z,10.02
2019-03-23T10:11:13.197Z,9.98
2019-03-23T10:12:13.198Z,10.12
2019-03-23T10:13:13.213Z,10.09
2019-03-23T10:14:13.133Z,10.16
2019-03-23T10:15:13.110Z,10.2
2019-03-23T10:16:13.080Z,10.17
2019-03-23T10:17:13.054Z,10.1
2019-03-23T10:18:13.031Z,10.07
2019-03-23T10:19:13.010Z,10.15
2019-03-23T10:20:12.986Z,10.02
2019-03-23T10:21:12.969Z,9.98
2019-03-23T10:22:12.935Z,9.89
2019-03-23T10:23:12.926Z,9.95
2019-03-23T10:24:12.899Z,9.99
2019-03-23T10:25:12.872Z,10.02
2019-03-23T10:26:13.277Z,9.99
2019-03-23T10:27:12.836Z,10.04
2019-03-23T10:28:12.798Z,10.07
2019-03-23T10:29:12.774Z,10.05
2019-03-23T10:30:12.746Z,10.05
2019-03-23T10:31:12.731Z,10.13
2019-03-23T10:32:12.704Z,10.23
2019-03-23T10:33:12.677Z,10.1
2019-03-23T10:34:12.656Z,10.19
2019-03-23T10:35:12.396Z,10.16
2019-03-23T10:36:14.654Z,10.38
2019-03-23T10:37:12.592Z,10.46
2019-03-23T10:38:12.561Z,10.41
2019-03-23T10:39:12.536Z,10.46
2019-03-23T10:40:12.527Z,10.57
2019-03-23T10:41:12.495Z,10.57
2019-03-23T10:42:12.482Z,10.68
2019-03-23T10:43:12.448Z,10.63
2019-03-23T10:44:12.423Z,10.67
2019-03-23T10:45:12.401Z,10.72
2019-03-23T10:46:12.380Z,10.75
2019-03-23T10:47:12.357Z,10.79
2019-03-23T10:48:14.560Z,10.81
2019-03-23T10:49:12.312Z,10.89
2019-03-23T10:50:12.286Z,11.17
2019-03-23T10:51:12.263Z,11.35
2019-03-23T10:52:12.251Z,11.48
2019-03-23T10:53:12.221Z,11.63
2019-03-23T10:54:12.201Z,11.7
2019-03-23T10:55:12.174Z,11.94
2019-03-23T10:56:12.157Z,12.12
2019-03-23T10:57:12.135Z,12.15
2019-03-23T10:58:11.978Z,12.17
2019-03-23T10:59:11.864Z,12.2
2019-03-23T11:00:12.073Z,12.37
2019-03-23T11:01:12.050Z,12.42
2019-03-23T11:02:12.024Z,12.45
2019-03-23T11:03:12.014Z,12.47
2019-03-23T11:04:11.985Z,12.53
2019-03-23T11:05:11.972Z,12.53
2019-03-23T11:06:11.943Z,12.47
2019-03-23T11:07:11.945Z,12.54
2019-03-23T11:08:11.908Z,12.61
2019-03-23T11:09:11.901Z,12.73
2019-03-23T11:10:11.880Z,12.85
2019-03-23T11:11:11.855Z,12.79
2019-03-23T11:12:11.826Z,12.85
2019-03-23T11:13:11.806Z,12.79
2019-03-23T11:14:11.790Z,12.8
2019-03-23T11:15:11.776Z,12.85
2019-03-23T11:16:11.761Z,12.83
2019-03-23T11:17:11.740Z,12.8
2019-03-23T11:18:11.714Z,12.8
2019-03-23T11:19:18.194Z,12.79
2019-03-23T11:20:11.774Z,12.76
2019-03-23T11:21:11.664Z,12.73
2019-03-23T11:22:11.647Z,12.67
2019-03-23T11:23:11.616Z,12.57
2019-03-23T11:24:11.362Z,12.58
2019-03-23T11:25:11.581Z,12.57
2019-03-23T11:26:11.559Z,12.49
2019-03-23T11:27:11.544Z,12.54
2019-03-23T11:28:11.522Z,12.65
2019-03-23T11:29:13.270Z,12.79
2019-03-23T11:30:11.481Z,12.85
2019-03-23T11:31:11.463Z,12.9
2019-03-23T11:32:11.445Z,12.97
2019-03-23T11:33:11.442Z,13.2
2019-03-23T11:34:20.105Z,13.2
2019-03-23T11:35:13.139Z,13.38
2019-03-23T11:36:11.370Z,13.63
2019-03-23T11:37:11.678Z,13.71
2019-03-23T11:38:11.490Z,13.87
2019-03-23T11:39:11.321Z,14
2019-03-23T11:40:11.300Z,14.11
2019-03-23T11:41:11.279Z,14.12
2019-03-23T11:42:11.271Z,14.07
2019-03-23T11:43:11.249Z,13.92
2019-03-23T11:44:10.988Z,13.87
2019-03-23T11:45:11.212Z,13.81
2019-03-23T11:46:11.273Z,13.68
2019-03-23T11:47:11.176Z,13.71
2019-03-23T11:48:11.156Z,13.62
2019-03-23T11:49:11.133Z,13.75
2019-03-23T11:50:11.123Z,13.68
2019-03-23T11:51:11.109Z,13.63
2019-03-23T11:52:11.086Z,13.39
2019-03-23T11:53:11.070Z,13.35
2019-03-23T11:54:11.046Z,13.33
2019-03-23T11:55:11.033Z,13.35
2019-03-23T11:56:11.011Z,13.31
2019-03-23T11:57:10.993Z,13.5
2019-03-23T11:58:10.979Z,13.59
2019-03-23T11:59:10.975Z,13.63
2019-03-23T12:00:10.950Z,13.59
2019-03-23T12:01:10.931Z,13.7
2019-03-23T12:02:10.907Z,13.62
2019-03-23T12:03:10.885Z,13.67
2019-03-23T12:04:10.867Z,13.46
2019-03-23T12:05:10.863Z,13.42
2019-03-23T12:06:10.839Z,13.39
2019-03-23T12:07:10.813Z,13.42
2019-03-23T12:08:10.796Z,13.42
2019-03-23T12:09:10.787Z,13.42
2019-03-23T12:10:10.755Z,13.41
2019-03-23T12:11:10.735Z,13.49
2019-03-23T12:12:10.722Z,13.62
2019-03-23T12:13:10.704Z,13.75
2019-03-23T12:14:10.682Z,13.78
2019-03-23T12:15:10.664Z,13.71
2019-03-23T12:16:10.646Z,13.71
2019-03-23T12:17:11.403Z,13.79
2019-03-23T12:18:10.604Z,13.96
2019-03-23T12:19:10.586Z,13.93
2019-03-23T12:20:10.577Z,14.04
2019-03-23T12:21:10.560Z,14.05
2019-03-23T12:22:10.527Z,14.05
2019-03-23T12:23:10.514Z,14.08
2019-03-23T12:24:10.548Z,14.1
2019-03-23T12:25:10.481Z,14.05
2019-03-23T12:26:10.452Z,13.93
2019-03-23T12:27:10.202Z,13.99
2019-03-23T12:28:10.179Z,13.99
2019-03-23T12:29:10.399Z,13.92
2019-03-23T12:30:12.350Z,14.04
2019-03-23T12:31:10.369Z,14.22
2019-03-23T12:32:10.351Z,14.29
2019-03-23T12:33:10.324Z,14.26
2019-03-23T12:34:10.313Z,14.4
2019-03-23T12:35:10.319Z,14.36
2019-03-23T12:36:10.284Z,14.4
2019-03-23T12:37:10.252Z,14.35
2019-03-23T12:38:10.239Z,14.37
2019-03-23T12:39:10.221Z,14.37
2019-03-23T12:40:10.201Z,14.36
2019-03-23T12:41:25.671Z,14.43
2019-03-23T12:42:10.166Z,14.3
2019-03-23T12:43:10.151Z,14.23
2019-03-23T12:44:10.130Z,14.18
2019-03-23T12:45:10.111Z,14.15
2019-03-23T12:46:10.096Z,14.18
2019-03-23T12:47:10.077Z,14.1
2019-03-23T12:48:10.065Z,14.23
2019-03-23T12:49:11.238Z,14.32
2019-03-23T12:50:10.032Z,14.35
2019-03-23T12:51:10.004Z,14.44
2019-03-23T12:52:09.985Z,14.47
2019-03-23T12:53:09.973Z,14.37
2019-03-23T12:54:09.948Z,14.41
2019-03-23T12:55:09.941Z,14.36
2019-03-23T12:56:09.928Z,14.35
2019-03-23T12:57:09.898Z,14.35
2019-03-23T12:58:09.880Z,14.25
2019-03-23T12:59:09.862Z,14.4
2019-03-23T13:00:09.846Z,14.44
2019-03-23T13:01:09.829Z,14.54
2019-03-23T13:02:09.816Z,14.6
2019-03-23T13:03:09.790Z,14.69
2019-03-23T13:04:09.786Z,14.77
2019-03-23T13:05:09.764Z,14.82
2019-03-23T13:06:09.742Z,14.79
2019-03-23T13:07:09.731Z,14.78
2019-03-23T13:08:09.704Z,14.82
2019-03-23T13:09:09.688Z,14.72